createdAt,value
2022-11-28T00:02:02.615Z,60.10
2022-11-28T00:04:57.079Z,59.40
2022-11-28T00:07:51.715Z,59.10
2022-11-28T00:10:46.414Z,58.50
2022-11-28T00:13:41.484Z,59.20
2022-11-28T00:16:35.986Z,58.40
2022-11-28T00:19:30.563Z,57.90
2022-11-28T00:22:25.137Z,58.70
2022-11-28T00:25:19.753Z,58.60
2022-11-28T00:28:14.077Z,58.80
2022-11-28T00:31:08.536Z,58.80
2022-11-28T00:34:03.333Z,58.70
2022-11-28T00:36:57.759Z,59.30
2022-11-28T00:39:52.462Z,59.80
2022-11-28T00:42:47.360Z,60.60
2022-11-28T00:45:41.935Z,61.60
2022-11-28T00:48:37.485Z,60.00
2022-11-28T00:51:34.606Z,60.80
2022-11-28T00:54:29.403Z,62.00
2022-11-28T00:57:23.963Z,62.10
2022-11-28T01:00:18.843Z,62.90
2022-11-28T01:03:13.394Z,63.30
2022-11-28T01:06:08.852Z,64.90
2022-11-28T01:09:06.187Z,66.60
2022-11-28T01:12:00.296Z,66.80
2022-11-28T01:14:54.975Z,66.90
2022-11-28T01:17:49.678Z,65.90
2022-11-28T01:20:44.288Z,63.70
2022-11-28T01:23:40.798Z,60.50
2022-11-28T01:26:35.333Z,59.70
2022-11-28T01:29:30.519Z,57.20
2022-11-28T01:32:25.758Z,57.80
2022-11-28T01:35:20.793Z,58.80
2022-11-28T01:38:15.481Z,57.20
2022-11-28T01:41:10.368Z,58.90
2022-11-28T01:44:10.443Z,59.10
2022-11-28T01:47:05.217Z,57.90
2022-11-28T01:49:59.984Z,55.90
2022-11-28T01:52:59.457Z,56.40
2022-11-28T01:56:15.945Z,55.90
2022-11-28T01:59:13.734Z,54.20
2022-11-28T02:02:11.775Z,54.60
2022-11-28T02:05:07.527Z,50.80
2022-11-28T02:08:02.285Z,52.90
2022-11-28T02:11:21.390Z,53.60
2022-11-28T02:14:38.727Z,51.00
2022-11-28T02:17:57.316Z,52.10
2022-11-28T02:21:06.220Z,52.20
2022-11-28T02:24:42.725Z,52.30
2022-11-28T02:27:43.398Z,53.20
2022-11-28T02:31:20.549Z,54.20
2022-11-28T02:34:55.906Z,53.10
2022-11-28T02:38:11.930Z,53.00
2022-11-28T02:41:41.728Z,53.00
2022-11-28T02:44:45.540Z,51.40
2022-11-28T02:47:52.086Z,51.50
2022-11-28T02:51:09.299Z,52.80
2022-11-28T02:54:05.610Z,52.20
2022-11-28T02:57:00.212Z,52.40
2022-11-28T02:59:56.828Z,53.10
2022-11-28T03:02:59.774Z,52.40
2022-11-28T03:06:19.125Z,53.50
2022-11-28T03:09:46.934Z,52.40
2022-11-28T03:13:18.346Z,52.50
2022-11-28T03:16:29.818Z,52.80
2022-11-28T03:19:24.374Z,52.70
2022-11-28T03:22:41.818Z,53.10
2022-11-28T03:25:45.491Z,53.30
2022-11-28T03:28:43.568Z,51.90
2022-11-28T03:31:43.804Z,53.10
2022-11-28T03:34:45.692Z,51.30
2022-11-28T03:37:53.232Z,50.80
2022-11-28T03:40:51.928Z,49.10
2022-11-28T03:43:52.964Z,50.10
2022-11-28T03:46:51.190Z,51.50
2022-11-28T03:49:53.934Z,52.10
2022-11-28T03:52:53.330Z,52.10
2022-11-28T03:55:55.189Z,51.90
2022-11-28T03:58:53.549Z,49.70
2022-11-28T04:01:59.195Z,50.70
2022-11-28T04:05:12.308Z,49.90
2022-11-28T04:08:31.428Z,49.90
2022-11-28T04:11:40.461Z,49.30
2022-11-28T04:14:47.839Z,48.40
2022-11-28T04:18:14.446Z,48.40
2022-11-28T04:21:32.397Z,49.60
2022-11-28T04:24:52.180Z,49.30
2022-11-28T04:27:51.471Z,50.10
2022-11-28T04:30:49.732Z,49.10
2022-11-28T04:33:49.645Z,48.40
2022-11-28T04:36:47.945Z,48.20
2022-11-28T04:39:46.707Z,49.00
2022-11-28T04:42:53.732Z,48.60
2022-11-28T04:45:56.785Z,48.50
2022-11-28T04:48:51.607Z,48.10
2022-11-28T04:52:08.570Z,48.00
2022-11-28T04:55:21.506Z,50.20
2022-11-28T04:58:31.804Z,50.80
2022-11-28T05:01:32.918Z,49.50
2022-11-28T05:04:27.727Z,50.10
2022-11-28T05:07:23.008Z,49.50
2022-11-28T05:10:19.136Z,48.70
2022-11-28T05:13:13.663Z,49.00
2022-11-28T05:16:08.542Z,48.80
2022-11-28T05:19:03.565Z,48.40
2022-11-28T05:21:58.328Z,48.80
2022-11-28T05:24:52.834Z,48.70
2022-11-28T05:27:47.283Z,49.30
2022-11-28T05:30:42.097Z,49.90
2022-11-28T05:33:37.475Z,50.60
2022-11-28T05:36:32.321Z,50.90
2022-11-28T05:39:28.207Z,51.10
2022-11-28T05:42:22.938Z,52.10
2022-11-28T05:45:17.500Z,52.70
2022-11-28T05:48:12.727Z,52.20
2022-11-28T05:51:07.676Z,52.30
2022-11-28T05:54:02.312Z,52.00
2022-11-28T05:56:57.913Z,51.80
2022-11-28T05:59:52.605Z,52.10
2022-11-28T06:02:47.232Z,52.60
2022-11-28T06:05:44.344Z,52.90
2022-11-28T06:08:38.335Z,53.50
2022-11-28T06:11:34.475Z,53.40
2022-11-28T06:14:28.914Z,53.60
2022-11-28T06:17:23.545Z,53.90
2022-11-28T06:20:17.985Z,54.20
2022-11-28T06:23:12.501Z,54.40
2022-11-28T06:26:15.057Z,53.40
2022-11-28T06:29:09.455Z,53.80
2022-11-28T06:32:03.960Z,54.50
2022-11-28T06:34:58.441Z,54.60
2022-11-28T06:37:52.893Z,54.70
2022-11-28T06:40:47.598Z,53.90
2022-11-28T06:43:42.294Z,53.50
2022-11-28T06:46:36.990Z,53.70
2022-11-28T06:49:31.512Z,54.90
2022-11-28T06:52:25.981Z,56.00
2022-11-28T06:55:20.494Z,56.30
2022-11-28T06:58:15.223Z,56.50
2022-11-28T07:01:15.237Z,56.00
2022-11-28T07:04:10.615Z,56.00
2022-11-28T07:07:05.150Z,56.50
2022-11-28T07:09:59.567Z,57.10
2022-11-28T07:13:02.407Z,57.30
2022-11-28T07:15:59.485Z,56.70
2022-11-28T07:18:54.816Z,56.60
2022-11-28T07:21:49.370Z,56.80
2022-11-28T07:24:43.782Z,56.80
2022-11-28T07:27:38.194Z,56.40
2022-11-28T07:30:32.550Z,56.60
2022-11-28T07:33:27.056Z,56.10
2022-11-28T07:36:27.560Z,56.60
2022-11-28T07:39:21.946Z,56.30
2022-11-28T07:42:16.392Z,56.00
2022-11-28T07:45:11.958Z,56.40
2022-11-28T07:48:06.411Z,56.40
2022-11-28T07:51:01.000Z,56.70
2022-11-28T07:53:55.650Z,56.40
2022-11-28T08:00:06.100Z,56.40
2022-11-28T08:03:01.108Z,56.80
2022-11-28T08:05:59.040Z,56.40
2022-11-28T08:08:57.354Z,56.50
2022-11-28T08:11:53.723Z,57.00
2022-11-28T08:14:48.295Z,57.50
2022-11-28T08:17:42.724Z,57.60
2022-11-28T08:20:37.236Z,57.40
2022-11-28T08:23:31.633Z,57.10
2022-11-28T08:26:30.681Z,57.70
2022-11-28T08:29:25.426Z,58.40
2022-11-28T08:32:20.044Z,58.60
2022-11-28T08:35:14.536Z,58.80
2022-11-28T08:38:09.013Z,59.30
2022-11-28T08:41:09.256Z,59.40
2022-11-28T08:44:03.740Z,59.60
2022-11-28T08:46:58.209Z,59.90
2022-11-28T08:49:52.667Z,60.30
2022-11-28T08:52:47.402Z,60.50
2022-11-28T08:55:45.456Z,60.40
2022-11-28T08:58:39.860Z,60.70
2022-11-28T09:01:34.683Z,60.40
2022-11-28T09:04:29.159Z,61.50
2022-11-28T09:07:23.543Z,62.00
2022-11-28T09:10:18.220Z,62.90
2022-11-28T09:13:14.149Z,63.60
2022-11-28T09:16:09.087Z,64.20
2022-11-28T09:19:03.858Z,64.40
2022-11-28T09:21:58.453Z,64.40
2022-11-28T09:24:52.929Z,64.70
2022-11-28T09:27:47.343Z,65.40
2022-11-28T09:30:41.772Z,65.10
2022-11-28T09:33:37.482Z,64.80
2022-11-28T09:36:33.685Z,64.90
2022-11-28T09:39:35.817Z,65.50
2022-11-28T09:42:45.324Z,65.80
2022-11-28T09:45:40.169Z,66.10
2022-11-28T09:48:34.842Z,66.90
2022-11-28T09:52:13.886Z,67.50
2022-11-28T09:55:35.547Z,67.60
2022-11-28T09:59:00.261Z,69.00
2022-11-28T10:02:28.689Z,70.30
2022-11-28T10:05:37.468Z,70.60
2022-11-28T10:08:40.702Z,70.60
2022-11-28T10:11:38.055Z,70.30
2022-11-28T10:14:42.432Z,70.10
2022-11-28T10:17:39.465Z,70.00
2022-11-28T10:20:39.161Z,69.90
2022-11-28T10:23:48.654Z,69.90
2022-11-28T10:26:48.907Z,70.30
2022-11-28T10:29:58.121Z,71.30
2022-11-28T10:33:16.051Z,71.50
2022-11-28T10:36:30.164Z,71.70
2022-11-28T10:39:26.562Z,72.00
2022-11-28T10:42:30.856Z,72.10
2022-11-28T10:45:37.816Z,72.30
2022-11-28T10:48:49.465Z,72.70
2022-11-28T10:51:59.113Z,72.60
2022-11-28T10:55:11.488Z,72.50
2022-11-28T10:58:25.678Z,72.10
2022-11-28T11:01:20.419Z,72.60
2022-11-28T11:04:21.774Z,73.50
2022-11-28T11:07:36.281Z,73.40
2022-11-28T11:10:58.512Z,73.70
2022-11-28T11:14:10.567Z,74.10
2022-11-28T11:17:05.640Z,74.10
2022-11-28T11:20:00.020Z,74.40
2022-11-28T11:23:03.407Z,74.60
2022-11-28T11:25:59.926Z,74.60
2022-11-28T11:28:54.877Z,74.80
2022-11-28T11:31:54.470Z,74.90
2022-11-28T11:34:50.513Z,74.50
2022-11-28T11:37:45.042Z,75.00
2022-11-28T11:40:39.446Z,75.10
2022-11-28T11:43:37.389Z,75.90
2022-11-28T11:46:31.839Z,75.50
2022-11-28T11:49:50.623Z,75.90
2022-11-28T11:52:45.169Z,76.20
2022-11-28T11:55:48.774Z,76.70
2022-11-28T11:58:53.662Z,76.80
2022-11-28T12:01:51.013Z,76.40
2022-11-28T12:04:51.109Z,76.00
2022-11-28T12:08:08.943Z,75.80
2022-11-28T12:11:46.918Z,76.10
2022-11-28T12:14:42.502Z,75.50
2022-11-28T12:17:50.689Z,75.50
2022-11-28T12:21:01.889Z,75.70
2022-11-28T12:24:18.971Z,75.90
2022-11-28T12:27:45.029Z,76.00
2022-11-28T12:30:55.065Z,76.00
2022-11-28T12:34:01.395Z,75.40
2022-11-28T12:37:08.035Z,74.60
2022-11-28T12:40:13.431Z,74.40
2022-11-28T12:43:47.796Z,74.40
2022-11-28T12:47:04.651Z,74.20
2022-11-28T12:50:04.792Z,73.70
2022-11-28T12:53:20.804Z,73.80
2022-11-28T12:56:33.371Z,73.50
2022-11-28T12:59:48.187Z,73.00
2022-11-28T13:03:07.384Z,71.40
2022-11-28T13:06:19.965Z,71.30
2022-11-28T13:09:35.352Z,70.80
2022-11-28T13:12:48.356Z,70.70
2022-11-28T13:15:57.977Z,70.70
2022-11-28T13:19:17.590Z,70.80
2022-11-28T13:22:25.614Z,70.60
2022-11-28T13:25:30.090Z,70.40
2022-11-28T13:28:40.146Z,69.60
2022-11-28T13:31:53.442Z,69.70
2022-11-28T13:34:50.032Z,68.60
2022-11-28T13:38:45.123Z,67.90
2022-11-28T13:42:28.490Z,67.90
2022-11-28T13:45:28.268Z,67.60
2022-11-28T13:52:21.273Z,67.80
2022-11-28T13:55:48.030Z,67.90
2022-11-28T13:58:58.434Z,68.30
2022-11-28T14:02:05.100Z,68.50
2022-11-28T14:04:59.651Z,68.70
2022-11-28T14:07:56.059Z,68.90
2022-11-28T14:11:09.118Z,69.20
2022-11-28T14:14:38.581Z,69.30
2022-11-28T14:18:39.152Z,69.40
2022-11-28T14:21:28.948Z,69.20
2022-11-28T14:24:56.362Z,69.50
2022-11-28T14:27:56.762Z,68.90
2022-11-28T14:30:51.599Z,68.60
2022-11-28T14:33:47.995Z,68.40
2022-11-28T14:36:44.017Z,68.70
2022-11-28T14:39:38.432Z,68.40
2022-11-28T14:42:59.787Z,67.90
2022-11-28T14:45:53.381Z,67.00
2022-11-28T14:49:03.410Z,66.20
2022-11-28T14:52:37.042Z,65.90
2022-11-28T14:55:26.902Z,65.40
2022-11-28T14:58:21.328Z,64.60
2022-11-28T15:01:26.912Z,64.60
2022-11-28T15:04:39.395Z,64.10
2022-11-28T15:07:48.910Z,64.10
2022-11-28T15:11:07.360Z,63.70
2022-11-28T15:14:13.316Z,64.10
2022-11-28T15:17:12.869Z,63.80
2022-11-28T15:20:19.206Z,64.10
2022-11-28T15:23:28.284Z,64.30
2022-11-28T15:26:32.891Z,64.40
2022-11-28T15:29:30.111Z,64.00
2022-11-28T15:32:25.814Z,62.70
2022-11-28T15:35:20.760Z,62.00
2022-11-28T15:38:16.872Z,61.40
2022-11-28T15:41:11.624Z,61.00
2022-11-28T15:44:06.150Z,60.70
2022-11-28T15:47:00.932Z,60.20
2022-11-28T15:50:29.648Z,59.90
2022-11-28T15:53:24.191Z,59.80
2022-11-28T15:56:18.842Z,59.70
2022-11-28T15:59:13.258Z,59.40
2022-11-28T16:02:18.390Z,59.50
2022-11-28T16:05:23.718Z,59.50
2022-11-28T16:08:42.705Z,60.30
2022-11-28T16:11:38.145Z,59.80
2022-11-28T16:14:44.290Z,59.70
2022-11-28T16:17:44.371Z,59.80
2022-11-28T16:20:40.084Z,60.00
2022-11-28T16:23:39.142Z,60.10
2022-11-28T16:26:38.066Z,60.30
2022-11-28T16:29:37.846Z,60.40
2022-11-28T16:32:40.604Z,60.70
2022-11-28T16:35:42.928Z,61.20
2022-11-28T16:38:37.888Z,61.90
2022-11-28T16:41:33.468Z,63.20
2022-11-28T16:44:27.960Z,64.40
2022-11-28T16:47:32.312Z,65.20
2022-11-28T16:50:27.411Z,66.10
2022-11-28T16:53:46.263Z,66.60
2022-11-28T16:56:40.653Z,67.80
2022-11-28T16:59:35.015Z,68.60
2022-11-28T17:02:29.553Z,68.70
2022-11-28T17:05:24.011Z,68.70
2022-11-28T17:08:18.348Z,68.80
2022-11-28T17:11:13.673Z,68.60
2022-11-28T17:14:13.261Z,68.50
2022-11-28T17:17:18.729Z,68.10
2022-11-28T17:20:15.014Z,67.80
2022-11-28T17:23:09.455Z,67.80
2022-11-28T17:26:03.830Z,67.50
2022-11-28T17:28:59.195Z,67.00
2022-11-28T17:31:56.395Z,66.80
2022-11-28T17:34:51.414Z,66.50
2022-11-28T17:37:46.536Z,66.30
2022-11-28T17:40:43.794Z,66.10
2022-11-28T17:43:39.339Z,65.60
2022-11-28T17:46:34.654Z,65.40
2022-11-28T17:49:29.852Z,65.10
2022-11-28T17:52:29.046Z,64.70
2022-11-28T17:55:23.433Z,64.70
2022-11-28T17:58:24.812Z,64.70
2022-11-28T18:01:24.082Z,64.60
2022-11-28T18:04:18.696Z,64.70
2022-11-28T18:07:13.046Z,64.70
2022-11-28T18:10:08.241Z,64.70
2022-11-28T18:13:03.105Z,64.50
2022-11-28T18:15:57.929Z,64.40
2022-11-28T18:18:52.311Z,64.20
2022-11-28T18:21:46.737Z,63.90
2022-11-28T18:24:41.053Z,63.70
2022-11-28T18:27:35.986Z,63.60
2022-11-28T18:30:30.444Z,63.60
2022-11-28T18:33:24.855Z,63.10
2022-11-28T18:36:20.749Z,63.00
2022-11-28T18:39:17.113Z,62.70
2022-11-28T18:42:11.526Z,62.80
2022-11-28T18:45:06.260Z,62.90
2022-11-28T18:48:00.737Z,62.90
2022-11-28T18:50:55.191Z,63.10
2022-11-28T18:53:50.495Z,62.90
2022-11-28T18:56:45.005Z,63.00
2022-11-28T18:59:39.380Z,62.90
2022-11-28T19:02:34.294Z,62.70
2022-11-28T19:05:28.690Z,62.60
2022-11-28T19:08:23.471Z,62.40
2022-11-28T19:11:18.827Z,62.80
2022-11-28T19:14:18.260Z,63.00
2022-11-28T19:17:13.375Z,62.80
2022-11-28T19:20:08.490Z,62.80
2022-11-28T19:23:02.904Z,62.90
2022-11-28T19:25:57.308Z,63.00
2022-11-28T19:28:52.221Z,62.90
2022-11-28T19:31:46.593Z,62.90
2022-11-28T19:34:41.067Z,63.10
2022-11-28T19:37:35.611Z,63.10
2022-11-28T19:40:29.997Z,63.10
2022-11-28T19:43:24.778Z,62.90
2022-11-28T19:46:20.138Z,62.90
2022-11-28T19:49:23.124Z,62.80
2022-11-28T19:52:17.489Z,63.40
2022-11-28T19:55:12.079Z,65.50
2022-11-28T19:58:06.424Z,66.40
2022-11-28T20:01:15.682Z,67.60
2022-11-28T20:04:10.164Z,68.10
2022-11-28T20:07:04.828Z,68.20
2022-11-28T20:09:59.229Z,68.60
2022-11-28T20:12:55.438Z,69.10
2022-11-28T20:15:49.787Z,69.30
2022-11-28T20:18:45.841Z,70.00
2022-11-28T20:21:41.505Z,70.70
2022-11-28T20:24:36.060Z,70.90
2022-11-28T20:27:30.703Z,71.00
2022-11-28T20:30:25.083Z,71.60
2022-11-28T20:33:19.922Z,71.60
2022-11-28T20:36:17.012Z,71.10
2022-11-28T20:39:12.843Z,71.30
2022-11-28T20:42:07.893Z,71.50
2022-11-28T20:45:02.281Z,71.70
2022-11-28T20:47:56.644Z,71.30
2022-11-28T20:50:51.024Z,71.50
2022-11-28T20:53:45.853Z,71.60
2022-11-28T20:57:13.288Z,71.80
2022-11-28T20:59:59.068Z,71.70
2022-11-28T21:02:53.454Z,71.10
2022-11-28T21:05:47.854Z,71.20
2022-11-28T21:08:42.498Z,71.20
2022-11-28T21:11:56.387Z,71.00
2022-11-28T21:14:53.513Z,71.10
2022-11-28T21:17:48.146Z,71.00
2022-11-28T21:20:47.953Z,71.00
2022-11-28T21:23:43.231Z,71.10
2022-11-28T21:26:41.700Z,70.80
2022-11-28T21:29:38.663Z,71.10
2022-11-28T21:32:33.035Z,70.90
2022-11-28T21:35:27.449Z,69.90
2022-11-28T21:38:22.135Z,69.60
2022-11-28T21:41:16.556Z,69.70
2022-11-28T21:44:10.945Z,69.00
2022-11-28T21:47:06.735Z,67.10
2022-11-28T21:50:01.129Z,66.10
2022-11-28T21:52:55.526Z,66.00
2022-11-28T21:55:49.932Z,65.30
2022-11-28T21:58:44.366Z,64.10
2022-11-28T22:01:38.849Z,64.50
2022-11-28T22:04:33.381Z,63.80
2022-11-28T22:07:27.917Z,63.30
2022-11-28T22:10:22.513Z,62.60
2022-11-28T22:13:16.923Z,62.70
2022-11-28T22:16:21.034Z,62.30
2022-11-28T22:19:15.627Z,62.30
2022-11-28T22:22:10.167Z,61.70
2022-11-28T22:25:04.593Z,61.90
2022-11-28T22:27:59.150Z,61.50
2022-11-28T22:30:53.747Z,60.20
2022-11-28T22:33:50.488Z,59.80
2022-11-28T22:36:44.876Z,59.80
2022-11-28T22:39:40.167Z,59.40
2022-11-28T22:42:34.676Z,60.00
2022-11-28T22:45:29.246Z,59.90
2022-11-28T22:48:23.758Z,60.10
2022-11-28T22:51:22.952Z,60.20
2022-11-28T22:54:17.540Z,60.60
2022-11-28T22:57:12.010Z,59.30
2022-11-28T23:00:08.274Z,60.20
2022-11-28T23:03:02.973Z,58.10
2022-11-28T23:05:57.520Z,58.00
2022-11-28T23:08:53.250Z,58.80
2022-11-28T23:11:47.743Z,58.00
2022-11-28T23:14:42.439Z,58.10
2022-11-28T23:17:37.482Z,57.60
2022-11-28T23:20:31.980Z,58.40
2022-11-28T23:23:26.459Z,58.30
2022-11-28T23:26:25.979Z,58.30
2022-11-28T23:29:21.660Z,57.90
2022-11-28T23:32:16.069Z,58.10
2022-11-28T23:35:10.709Z,57.70
2022-11-28T23:38:07.149Z,57.30
2022-11-28T23:41:03.946Z,57.20
2022-11-28T23:43:59.383Z,57.50
2022-11-28T23:46:53.868Z,56.50
2022-11-28T23:49:48.362Z,57.00
2022-11-28T23:52:42.770Z,57.20
2022-11-28T23:55:37.296Z,57.00
2022-11-28T23:58:31.688Z,58.10
